Time;durP1;ratioP1;P1;durP2;ratioP2;P2;SDS_P1;SDS_P2;PMS_P1;PMS_P2;Temp;Humidity;BMP_temperature;BMP_pressure;BME280_temperature;BME280_humidity;BME280_pressure;Samples;Min_cycle;Max_cycle;Signal;HPM_P1;HPM_P2
2021/12/24 00:01:17;;;;;;;67.00;18.65;;;5.60;99.90;;;;;;5114548;27;20043;-82
2021/12/24 00:03:44;;;;;;;45.60;16.73;;;5.60;99.90;;;;;;5107496;28;20871;-82
2021/12/24 00:06:11;;;;;;;55.13;18.33;;;5.60;99.90;;;;;;5108367;28;20054;-83
2021/12/24 00:08:38;;;;;;;53.95;17.88;;;5.60;99.90;;;;;;5090395;28;20074;-82
2021/12/24 00:11:05;;;;;;;45.35;15.95;;;5.70;99.90;;;;;;5092619;28;20082;-83
2021/12/24 00:13:36;;;;;;;74.47;18.27;;;5.70;99.90;;;;;;5104727;28;20048;-82
2021/12/24 00:16:41;;;;;;;52.78;17.58;;;5.70;99.90;;;;;;5109272;27;20055;-82
2021/12/24 00:19:13;;;;;;;56.55;17.35;;;5.70;99.90;;;;;;5121650;27;20051;-82
2021/12/24 00:35:15;;;;;;;53.88;16.38;;;5.80;99.90;;;;;;5113545;27;20070;-82
2021/12/24 00:37:44;;;;;;;93.85;16.95;;;5.80;99.90;;;;;;5097431;27;20035;-82
2021/12/24 00:40:16;;;;;;;52.15;16.30;;;5.80;99.90;;;;;;5111514;27;20074;-82
2021/12/24 00:42:44;;;;;;;48.58;14.18;;;5.80;99.90;;;;;;5090233;27;20684;-82
2021/12/24 00:45:15;;;;;;;46.22;14.75;;;5.80;99.90;;;;;;5095424;27;20411;-82
2021/12/24 00:47:41;;;;;;;45.47;14.35;;;5.90;99.90;;;;;;5095109;27;20046;-82
2021/12/24 00:50:11;;;;;;;53.40;14.25;;;5.90;99.90;;;;;;5104385;27;20069;-81
2021/12/24 00:55:12;;;;;;;43.67;13.98;;;5.90;99.90;;;;;;5111061;27;20632;-81
2021/12/24 00:57:46;;;;;;;63.10;15.18;;;5.90;99.90;;;;;;5093580;27;20074;-81
2021/12/24 01:00:21;;;;;;;41.13;12.65;;;5.90;99.90;;;;;;5094456;27;20051;-81
2021/12/24 01:02:48;;;;;;;32.95;12.18;;;6.00;99.90;;;;;;5093052;27;20475;-82
2021/12/24 01:05:16;;;;;;;43.28;12.48;;;6.00;99.90;;;;;;5111248;27;20503;-82
2021/12/24 01:07:44;;;;;;;32.47;11.55;;;6.00;99.90;;;;;;5093238;27;20411;-82
2021/12/24 01:10:12;;;;;;;39.10;12.25;;;6.00;99.90;;;;;;5093785;27;20122;-82
2021/12/24 01:12:41;;;;;;;27.80;10.70;;;6.10;99.90;;;;;;5109725;27;20050;-81
2021/12/24 01:15:07;;;;;;;30.95;10.50;;;6.00;99.90;;;;;;5092441;27;20032;-81
2021/12/24 01:17:40;;;;;;;34.65;10.70;;;6.10;99.90;;;;;;5092780;27;20035;-81
2021/12/24 01:20:20;;;;;;;33.50;11.25;;;6.10;99.90;;;;;;5117370;27;20059;-81
2021/12/24 01:25:36;;;;;;;30.30;10.88;;;6.10;99.90;;;;;;5111044;27;20051;-81
2021/12/24 01:38:35;;;;;;;46.25;10.48;;;6.70;99.90;;;;;;5110149;27;20055;-81
2021/12/24 01:43:28;;;;;;;42.90;10.10;;;6.30;99.90;;;;;;5110132;27;20092;-81
2021/12/24 01:45:56;;;;;;;29.33;8.32;;;6.30;99.90;;;;;;5109742;27;20050;-81
2021/12/24 01:48:22;;;;;;;36.22;8.88;;;6.30;99.90;;;;;;5088861;27;20401;-81
2021/12/24 01:50:49;;;;;;;27.20;8.73;;;6.40;99.90;;;;;;5109592;27;20047;-81
2021/12/24 01:53:17;;;;;;;19.65;7.50;;;6.30;99.90;;;;;;5110141;27;20043;-81
2021/12/24 01:55:45;;;;;;;24.48;7.78;;;6.40;99.90;;;;;;5109682;27;20081;-81
2021/12/24 01:58:11;;;;;;;23.30;7.70;;;6.40;99.90;;;;;;5092168;27;20035;-81
2021/12/24 02:00:41;;;;;;;20.67;7.63;;;6.40;99.90;;;;;;5110334;27;20058;-81
2021/12/24 02:03:09;;;;;;;27.73;8.10;;;6.50;99.90;;;;;;5093545;27;20135;-81
2021/12/24 02:05:35;;;;;;;24.08;7.88;;;6.50;99.90;;;;;;5109918;27;20046;-81
2021/12/24 02:08:02;;;;;;;20.92;7.32;;;6.50;99.90;;;;;;5109868;27;20039;-81
2021/12/24 02:10:29;;;;;;;40.00;9.10;;;6.50;99.90;;;;;;5092358;27;20051;-81
2021/12/24 02:12:55;;;;;;;34.30;8.80;;;6.50;99.90;;;;;;5109655;27;20044;-81
2021/12/24 02:15:42;;;;;;;30.92;8.95;;;6.60;99.90;;;;;;5090952;27;20039;-81
2021/12/24 02:18:41;;;;;;;32.92;8.48;;;6.60;99.90;;;;;;5091003;28;20130;-81
2021/12/24 02:29:14;;;;;;;37.28;9.30;;;6.70;99.90;;;;;;5089443;28;20056;-81
2021/12/24 02:31:39;;;;;;;33.10;8.98;;;6.70;99.90;;;;;;5110998;27;20606;-81
2021/12/24 02:34:05;;;;;;;26.45;9.00;;;6.70;99.90;;;;;;5097261;27;20034;-81
2021/12/24 02:36:31;;;;;;;29.08;8.95;;;7.00;99.90;;;;;;5098380;27;20094;-81
2021/12/24 02:38:57;;;;;;;23.45;8.85;;;6.70;99.90;;;;;;5108291;27;20062;-81
2021/12/24 02:41:23;;;;;;;31.25;8.52;;;7.20;99.90;;;;;;5087738;27;20582;-81
2021/12/24 02:43:49;;;;;;;29.08;8.65;;;6.80;99.90;;;;;;5107934;27;20096;-81
2021/12/24 02:46:29;;;;;;;25.00;8.98;;;6.80;99.90;;;;;;5108500;27;20043;-81
2021/12/24 02:54:12;;;;;;;49.30;10.52;;;6.90;99.90;;;;;;5109484;27;20131;-81
2021/12/24 02:56:39;;;;;;;31.30;9.30;;;6.90;99.90;;;;;;5108843;27;20058;-81
2021/12/24 02:59:13;;;;;;;34.15;9.77;;;6.90;99.90;;;;;;5093434;27;20053;-81
2021/12/24 03:01:44;;;;;;;30.80;9.48;;;6.90;99.90;;;;;;5086810;27;20039;-81
2021/12/24 03:04:11;;;;;;;40.97;11.65;;;7.00;99.90;;;;;;5119570;27;20046;-81
2021/12/24 03:06:40;;;;;;;45.25;11.32;;;7.00;99.90;;;;;;5091903;27;20039;-81
2021/12/24 03:09:09;;;;;;;48.90;12.20;;;7.00;99.90;;;;;;5109067;27;20096;-81
2021/12/24 03:11:36;;;;;;;57.78;13.05;;;7.10;99.90;;;;;;5090412;27;20138;-81
2021/12/24 03:14:04;;;;;;;55.13;12.55;;;7.10;99.90;;;;;;5092416;28;20084;-81
2021/12/24 03:16:32;;;;;;;55.83;12.43;;;7.20;99.90;;;;;;5108390;28;20043;-81
2021/12/24 03:18:57;;;;;;;54.88;12.75;;;7.30;99.90;;;;;;5108790;27;20495;-82
2021/12/24 03:21:30;;;;;;;47.80;12.30;;;7.20;99.90;;;;;;5110144;27;20047;-82
2021/12/24 03:26:29;;;;;;;;;;;7.20;99.90;;;;;;5110473;28;20407;-81
2021/12/24 03:28:55;;;;;;;78.97;13.52;;;7.30;99.90;;;;;;5107704;28;20306;-81
2021/12/24 03:31:21;;;;;;;155.30;17.63;;;7.40;99.90;;;;;;5107842;28;20512;-82
2021/12/24 03:33:48;;;;;;;97.43;16.13;;;7.40;99.90;;;;;;5118419;27;20071;-81
2021/12/24 03:36:15;;;;;;;118.43;17.35;;;7.40;99.90;;;;;;5076526;28;20173;-81
2021/12/24 03:38:40;;;;;;;109.35;15.90;;;7.40;99.90;;;;;;5091145;28;20032;-81
2021/12/24 03:41:06;;;;;;;78.22;15.23;;;7.50;99.90;;;;;;5090987;28;20058;-81
2021/12/24 03:43:33;;;;;;;121.93;17.30;;;7.70;99.90;;;;;;5091719;28;20031;-81
2021/12/24 03:46:06;;;;;;;137.32;17.38;;;7.50;99.90;;;;;;5107577;28;20499;-81
2021/12/24 03:48:49;;;;;;;95.93;16.45;;;8.00;99.90;;;;;;5100178;27;20039;-82
2021/12/24 03:56:26;;;;;;;124.03;18.90;;;7.60;99.90;;;;;;5111685;27;20055;-81
2021/12/24 03:58:52;;;;;;;94.30;17.83;;;7.60;99.90;;;;;;5094417;27;20163;-81
2021/12/24 04:01:17;;;;;;;102.32;17.95;;;7.60;99.90;;;;;;5110411;27;20463;-82
2021/12/24 04:03:43;;;;;;;117.88;19.80;;;7.70;99.90;;;;;;5098287;27;20041;-81
2021/12/24 04:06:09;;;;;;;94.72;17.08;;;7.70;99.90;;;;;;5117566;27;20123;-81
2021/12/24 04:08:35;;;;;;;89.65;17.25;;;7.70;99.90;;;;;;5111971;27;20051;-82
2021/12/24 04:11:01;;;;;;;92.00;17.60;;;7.90;99.90;;;;;;5087853;28;20391;-82
2021/12/24 04:13:26;;;;;;;82.40;16.83;;;7.80;99.90;;;;;;5100722;28;20042;-82
2021/12/24 04:15:52;;;;;;;76.88;16.85;;;7.80;99.90;;;;;;5097240;27;20130;-82
2021/12/24 04:26:26;;;;;;;73.18;16.50;;;7.80;99.90;;;;;;5092915;28;20401;-82
2021/12/24 04:28:52;;;;;;;71.07;16.88;;;7.90;99.90;;;;;;5109383;27;20111;-81
2021/12/24 04:31:21;;;;;;;77.63;20.08;;;7.90;99.90;;;;;;5098144;28;20074;-81
2021/12/24 04:33:49;;;;;;;91.63;21.00;;;7.90;99.90;;;;;;5133577;27;20042;-81
2021/12/24 04:36:39;;;;;;;84.30;21.45;;;7.90;99.90;;;;;;5095142;27;20054;-81
2021/12/24 04:53:09;;;;;;;111.47;25.00;;;8.00;99.90;;;;;;5111100;27;20047;-82
2021/12/24 05:03:41;;;;;;;74.15;22.83;;;8.10;99.90;;;;;;5113614;27;20134;-81
2021/12/24 05:06:15;;;;;;;80.68;22.00;;;8.10;99.90;;;;;;5119638;27;20043;-82
2021/12/24 05:08:51;;;;;;;63.08;21.10;;;8.10;99.90;;;;;;5109913;27;20123;-82
2021/12/24 05:11:18;;;;;;;68.85;21.48;;;8.10;99.90;;;;;;5095436;27;20042;-81
2021/12/24 05:13:44;;;;;;;76.38;21.77;;;8.10;99.90;;;;;;5093212;27;20035;-82
2021/12/24 05:21:33;;;;;;;68.38;23.35;;;8.10;99.90;;;;;;5102404;27;20107;-82
2021/12/24 05:24:15;;;;;;;76.60;23.77;;;8.10;99.90;;;;;;5094962;27;20298;-82
2021/12/24 05:26:47;;;;;;;74.13;24.38;;;8.10;99.90;;;;;;5089569;27;20130;-82
2021/12/24 05:29:14;;;;;;;73.20;23.35;;;8.20;99.90;;;;;;5099068;27;20040;-82
2021/12/24 05:31:40;;;;;;;77.95;23.63;;;8.20;99.90;;;;;;5084803;27;20074;-82
2021/12/24 05:34:05;;;;;;;66.10;23.08;;;8.20;99.90;;;;;;5094856;27;20071;-82
2021/12/24 05:36:31;;;;;;;73.10;23.33;;;8.20;99.90;;;;;;5138199;27;20122;-82
2021/12/24 05:38:57;;;;;;;66.55;20.55;;;8.20;99.90;;;;;;5091406;27;20506;-81
2021/12/24 05:41:23;;;;;;;69.88;21.83;;;8.20;99.90;;;;;;5086273;27;20403;-82
2021/12/24 05:43:50;;;;;;;61.42;20.83;;;8.20;99.90;;;;;;5126216;27;20103;-81
2021/12/24 05:46:16;;;;;;;61.58;20.33;;;8.20;99.90;;;;;;5109978;27;20050;-83
2021/12/24 05:48:42;;;;;;;82.43;21.75;;;8.20;99.90;;;;;;5096779;27;20126;-82
2021/12/24 05:51:09;;;;;;;64.45;20.33;;;8.20;99.90;;;;;;5093215;27;20065;-82
2021/12/24 05:53:36;;;;;;;62.47;20.20;;;8.10;99.90;;;;;;5093184;27;20432;-82
2021/12/24 05:56:03;;;;;;;71.72;19.52;;;8.10;99.90;;;;;;5098612;27;20589;-82
2021/12/24 05:58:28;;;;;;;58.15;18.80;;;8.10;99.90;;;;;;5110463;27;20291;-83
2021/12/24 06:00:54;;;;;;;59.42;16.92;;;8.10;99.90;;;;;;5109468;27;20046;-82
2021/12/24 06:03:20;;;;;;;54.50;17.65;;;8.10;99.90;;;;;;5091732;27;20053;-82
2021/12/24 06:05:46;;;;;;;57.67;16.60;;;8.10;99.90;;;;;;5079824;27;20146;-83
2021/12/24 06:08:12;;;;;;;57.85;17.00;;;8.10;99.90;;;;;;5099405;27;20039;-82
2021/12/24 06:10:39;;;;;;;49.28;13.65;;;8.10;99.90;;;;;;5096002;27;20058;-82
2021/12/24 06:13:05;;;;;;;49.58;13.85;;;8.10;99.90;;;;;;5101873;27;20051;-80
2021/12/24 06:15:41;;;;;;;44.35;13.27;;;8.20;99.90;;;;;;5087502;27;20047;-82
2021/12/24 06:18:12;;;;;;;46.78;12.73;;;8.10;99.90;;;;;;5090303;27;20043;-81
2021/12/24 06:20:39;;;;;;;40.28;13.10;;;8.10;99.90;;;;;;5089651;27;20051;-82
2021/12/24 06:23:07;;;;;;;52.85;12.73;;;8.20;99.90;;;;;;5089696;27;20043;-82
2021/12/24 06:25:33;;;;;;;48.53;12.18;;;8.10;99.90;;;;;;5099970;28;20074;-82
2021/12/24 06:27:58;;;;;;;50.90;12.40;;;8.20;99.90;;;;;;5089214;27;20686;-83
2021/12/24 06:30:29;;;;;;;45.88;11.75;;;7.60;99.90;;;;;;5116101;27;20103;-82
2021/12/24 06:32:55;;;;;;;38.25;10.68;;;8.20;99.90;;;;;;5108995;27;20130;-83
2021/12/24 06:35:21;;;;;;;46.97;11.55;;;8.20;99.90;;;;;;5099994;27;20122;-82
2021/12/24 06:37:46;;;;;;;39.08;10.43;;;8.80;99.90;;;;;;5109004;27;20138;-81
2021/12/24 06:40:12;;;;;;;38.47;10.63;;;8.20;99.90;;;;;;5091852;27;20038;-81
2021/12/24 06:42:39;;;;;;;41.92;10.80;;;8.20;99.90;;;;;;5101692;28;20051;-81
2021/12/24 06:45:05;;;;;;;45.88;12.52;;;8.00;99.90;;;;;;5086380;28;20555;-82
2021/12/24 06:47:31;;;;;;;45.78;12.43;;;8.20;99.90;;;;;;5098087;27;20039;-82
2021/12/24 06:49:57;;;;;;;43.45;12.43;;;8.20;99.90;;;;;;5103865;27;20043;-81
2021/12/24 06:52:23;;;;;;;38.33;12.48;;;8.20;99.90;;;;;;5083114;27;20412;-81
2021/12/24 06:54:49;;;;;;;43.83;11.25;;;8.20;99.90;;;;;;5100037;27;20039;-81
2021/12/24 06:57:18;;;;;;;33.22;11.80;;;8.10;99.90;;;;;;5088255;27;20493;-82
2021/12/24 06:59:44;;;;;;;46.00;12.25;;;8.10;99.90;;;;;;5091096;27;20037;-82
2021/12/24 07:02:09;;;;;;;35.22;11.20;;;8.10;99.90;;;;;;5104209;27;20047;-82
2021/12/24 07:04:35;;;;;;;43.10;11.18;;;8.10;99.90;;;;;;5101024;28;20428;-81
2021/12/24 07:07:01;;;;;;;30.23;10.57;;;8.10;99.90;;;;;;5096642;27;20080;-82
2021/12/24 07:09:27;;;;;;;36.55;10.73;;;8.10;99.90;;;;;;5088367;28;20396;-82
2021/12/24 07:11:53;;;;;;;35.55;10.23;;;8.10;99.90;;;;;;5087538;27;20038;-82
2021/12/24 07:14:18;;;;;;;35.65;10.05;;;8.10;99.90;;;;;;5095485;27;20043;-81
2021/12/24 07:16:44;;;;;;;31.88;9.52;;;8.10;99.90;;;;;;5086969;27;20417;-82
2021/12/24 07:19:10;;;;;;;31.58;10.55;;;8.10;99.90;;;;;;5086086;28;20488;-82
2021/12/24 07:21:35;;;;;;;38.35;10.15;;;8.10;99.90;;;;;;5081131;27;20130;-82
2021/12/24 07:24:02;;;;;;;38.35;9.73;;;8.10;99.90;;;;;;5107394;27;20039;-82
2021/12/24 07:26:28;;;;;;;36.90;9.55;;;8.00;99.90;;;;;;5119534;27;20047;-80
2021/12/24 07:28:54;;;;;;;49.20;10.65;;;8.10;99.90;;;;;;5078405;28;20047;-81
2021/12/24 07:31:20;;;;;;;37.22;9.05;;;8.00;99.90;;;;;;5100417;27;20106;-81
2021/12/24 07:33:45;;;;;;;41.42;8.73;;;8.00;99.90;;;;;;5121821;27;20047;-81
2021/12/24 07:36:11;;;;;;;34.60;9.13;;;8.00;99.90;;;;;;5100054;27;20605;-82
2021/12/24 07:38:37;;;;;;;31.58;8.23;;;8.00;99.90;;;;;;5084523;28;20043;-82
2021/12/24 07:41:04;;;;;;;21.15;7.40;;;8.00;99.90;;;;;;5101120;28;20046;-81
2021/12/24 07:43:30;;;;;;;27.88;6.97;;;8.10;99.90;;;;;;5091366;27;20058;-82
2021/12/24 07:45:56;;;;;;;25.30;7.00;;;8.00;99.90;;;;;;5090900;28;20050;-81
2021/12/24 07:48:29;;;;;;;20.70;7.30;;;8.00;99.90;;;;;;5089806;28;20043;-81
2021/12/24 07:53:24;;;;;;;27.33;6.63;;;8.00;99.90;;;;;;5104944;28;20673;-81
2021/12/24 07:55:50;;;;;;;31.02;7.18;;;8.00;99.90;;;;;;5107141;28;20046;-80
2021/12/24 07:58:17;;;;;;;30.40;7.15;;;8.00;99.90;;;;;;5090007;28;20047;-80
2021/12/24 08:00:45;;;;;;;26.35;7.60;;;8.00;99.90;;;;;;5074902;28;20051;-81
2021/12/24 08:03:11;;;;;;;26.85;7.53;;;8.00;99.90;;;;;;5083496;28;20453;-80
2021/12/24 08:05:40;;;;;;;27.83;6.95;;;8.00;99.90;;;;;;5109252;27;20099;-81
2021/12/24 08:08:07;;;;;;;30.13;7.78;;;8.00;99.90;;;;;;5094368;27;20043;-81
2021/12/24 08:10:34;;;;;;;30.40;7.20;;;8.00;99.90;;;;;;5124951;27;20047;-81
2021/12/24 08:13:04;;;;;;;29.05;7.63;;;8.00;99.90;;;;;;5105720;28;20724;-81
2021/12/24 08:15:30;;;;;;;29.50;7.38;;;8.00;99.90;;;;;;5124919;27;20043;-81
2021/12/24 08:17:56;;;;;;;32.20;7.68;;;7.90;99.90;;;;;;5090757;28;20520;-81
2021/12/24 08:20:24;;;;;;;39.25;8.30;;;8.00;99.90;;;;;;5105717;28;20066;-82
2021/12/24 08:22:52;;;;;;;29.05;8.13;;;8.00;99.90;;;;;;5086495;27;20594;-82
2021/12/24 08:25:19;;;;;;;33.40;7.72;;;8.00;99.90;;;;;;5086111;28;20055;-83
2021/12/24 08:27:45;;;;;;;36.25;8.52;;;7.90;99.90;;;;;;5100978;28;20047;-83
2021/12/24 08:30:11;;;;;;;26.30;7.40;;;8.00;99.90;;;;;;5134731;27;20092;-82
2021/12/24 08:32:40;;;;;;;28.10;8.02;;;8.00;99.90;;;;;;5135020;27;20043;-82
2021/12/24 08:35:09;;;;;;;32.17;7.95;;;7.90;99.90;;;;;;5087928;28;20043;-81
2021/12/24 08:37:35;;;;;;;29.80;7.38;;;8.00;99.90;;;;;;5080958;27;20210;-81
2021/12/24 08:40:00;;;;;;;30.92;7.72;;;7.90;99.90;;;;;;5090334;27;20152;-81
2021/12/24 08:42:26;;;;;;;32.13;8.10;;;8.00;99.90;;;;;;5092740;27;20563;-82
2021/12/24 08:44:52;;;;;;;31.65;8.68;;;8.00;99.90;;;;;;5110447;27;20070;-81
2021/12/24 08:47:18;;;;;;;39.10;9.25;;;8.00;99.90;;;;;;5081488;27;20043;-82
2021/12/24 08:49:44;;;;;;;30.50;7.97;;;8.00;99.90;;;;;;5084947;27;20149;-82
2021/12/24 08:52:10;;;;;;;26.45;7.65;;;7.90;99.90;;;;;;5079969;28;20047;-81
2021/12/24 08:54:36;;;;;;;26.23;7.85;;;8.00;99.90;;;;;;5120536;27;20407;-83
2021/12/24 08:57:02;;;;;;;32.00;8.23;;;8.00;99.90;;;;;;5100784;27;20039;-82
2021/12/24 08:59:28;;;;;;;23.27;6.18;;;7.90;99.90;;;;;;5116142;27;20045;-82
2021/12/24 09:01:54;;;;;;;25.10;7.43;;;8.00;99.90;;;;;;5108305;27;20048;-82
2021/12/24 09:04:20;;;;;;;19.63;6.57;;;7.90;99.90;;;;;;5088222;27;20047;-83
2021/12/24 09:06:46;;;;;;;26.65;6.68;;;7.90;99.90;;;;;;5127759;27;20059;-81
2021/12/24 09:09:12;;;;;;;24.45;6.38;;;7.90;99.90;;;;;;5103453;27;20051;-82
2021/12/24 09:11:40;;;;;;;24.67;6.30;;;7.90;99.90;;;;;;5092916;27;20412;-82
2021/12/24 09:14:06;;;;;;;28.67;7.15;;;7.90;99.90;;;;;;5077970;27;20451;-81
2021/12/24 09:16:36;;;;;;;27.75;6.55;;;7.90;99.90;;;;;;5092847;27;20083;-82
2021/12/24 09:19:07;;;;;;;22.90;6.45;;;7.90;99.90;;;;;;5079901;27;20189;-82
2021/12/24 09:21:34;;;;;;;19.73;6.53;;;7.90;99.90;;;;;;5099035;27;20055;-81
2021/12/24 09:24:01;;;;;;;16.52;5.65;;;7.90;99.90;;;;;;5086392;27;20064;-82
2021/12/24 09:26:29;;;;;;;16.58;5.78;;;7.90;99.90;;;;;;5086077;27;20055;-82
2021/12/24 09:29:00;;;;;;;25.10;6.32;;;7.90;99.90;;;;;;5099208;27;20567;-82
2021/12/24 09:31:26;;;;;;;13.32;5.90;;;7.90;99.90;;;;;;5069504;27;20407;-82
2021/12/24 09:33:53;;;;;;;23.10;5.90;;;7.90;99.90;;;;;;5068208;27;20986;-82
2021/12/24 09:36:24;;;;;;;15.10;6.03;;;7.90;99.90;;;;;;5091428;27;20091;-82
2021/12/24 09:38:51;;;;;;;16.30;5.88;;;7.90;99.90;;;;;;5096847;27;20513;-82
2021/12/24 09:41:18;;;;;;;15.18;4.90;;;7.90;99.90;;;;;;5090856;27;20060;-84
2021/12/24 09:43:44;;;;;;;13.82;5.32;;;7.90;99.90;;;;;;5102377;27;20050;-82
2021/12/24 09:46:11;;;;;;;17.08;5.07;;;7.90;99.90;;;;;;5100228;27;20046;-83
2021/12/24 09:48:38;;;;;;;10.15;4.43;;;7.90;99.90;;;;;;5080479;27;20047;-82
2021/12/24 09:51:04;;;;;;;14.10;4.07;;;7.80;99.90;;;;;;5088822;27;20050;-82
2021/12/24 09:53:29;;;;;;;11.27;4.35;;;7.90;99.90;;;;;;5082320;27;20043;-83
2021/12/24 09:55:55;;;;;;;7.28;3.50;;;7.90;99.90;;;;;;5095586;27;20083;-81
2021/12/24 09:58:21;;;;;;;5.38;2.00;;;7.80;99.90;;;;;;5099399;27;20550;-84
2021/12/24 10:00:47;;;;;;;4.10;1.60;;;7.70;99.90;;;;;;5086264;27;20039;-84
2021/12/24 10:03:28;;;;;;;4.13;1.60;;;7.40;99.90;;;;;;5089331;27;20050;-83
2021/12/24 10:05:54;;;;;;;3.60;1.65;;;7.20;99.90;;;;;;5103955;27;20442;-83
2021/12/24 10:08:23;;;;;;;5.35;1.67;;;7.00;99.90;;;;;;5082085;27;20551;-83
2021/12/24 10:10:53;;;;;;;6.45;1.92;;;6.90;99.90;;;;;;5091038;27;20381;-83
2021/12/24 10:13:41;;;;;;;3.90;1.70;;;6.70;99.90;;;;;;5101489;27;20519;-83
2021/12/24 10:16:20;;;;;;;6.22;2.28;;;6.70;99.90;;;;;;5080067;27;20297;-83
2021/12/24 10:18:54;;;;;;;6.65;2.33;;;6.60;99.90;;;;;;5101871;27;20050;-83
2021/12/24 10:21:32;;;;;;;4.90;2.20;;;6.60;99.90;;;;;;5140307;27;20043;-83
2021/12/24 10:24:11;;;;;;;6.15;2.30;;;6.50;99.90;;;;;;5088991;27;20060;-83
2021/12/24 10:26:57;;;;;;;5.43;2.40;;;6.50;99.90;;;;;;5091130;27;20373;-83
2021/12/24 10:29:33;;;;;;;4.80;2.22;;;6.50;99.90;;;;;;5090436;27;20047;-83
2021/12/24 10:32:11;;;;;;;7.10;2.80;;;6.40;99.90;;;;;;5102455;27;20100;-83
2021/12/24 10:34:37;;;;;;;4.68;2.17;;;6.40;99.90;;;;;;5108416;27;20081;-84
2021/12/24 10:37:10;;;;;;;5.82;2.78;;;6.40;99.90;;;;;;5096874;27;20054;-82
2021/12/24 10:39:46;;;;;;;7.07;2.65;;;6.40;99.90;;;;;;5096264;27;20039;-83
2021/12/24 10:42:19;;;;;;;6.07;2.70;;;6.90;99.90;;;;;;5111177;27;20046;-84
2021/12/24 10:44:46;;;;;;;6.00;3.00;;;6.80;99.90;;;;;;5074258;27;20066;-83
2021/12/24 10:47:18;;;;;;;5.93;2.70;;;6.30;99.90;;;;;;5103247;27;20038;-82
2021/12/24 10:55:05;;;;;;;5.15;2.42;;;6.20;99.90;;;;;;5101337;27;20110;-83
2021/12/24 10:57:36;;;;;;;5.40;2.60;;;6.20;99.90;;;;;;5082007;27;20415;-84
2021/12/24 11:00:28;;;;;;;5.00;2.30;;;6.20;99.90;;;;;;5094794;27;20035;-83
2021/12/24 11:03:00;;;;;;;5.43;1.95;;;6.70;99.90;;;;;;5102652;27;20572;-83
2021/12/24 11:05:38;;;;;;;5.45;2.20;;;6.10;99.90;;;;;;5083276;27;20054;-83
2021/12/24 11:08:16;;;;;;;6.68;2.42;;;6.10;99.90;;;;;;5085835;27;20052;-84
2021/12/24 11:10:45;;;;;;;9.10;2.72;;;6.10;99.90;;;;;;5085474;27;20047;-83
2021/12/24 11:13:14;;;;;;;5.43;2.70;;;6.10;99.90;;;;;;5103415;28;20042;-83
2021/12/24 11:15:53;;;;;;;6.22;2.90;;;6.00;99.90;;;;;;5085447;27;20046;-83
2021/12/24 11:18:27;;;;;;;;;;;6.00;99.90;;;;;;5120261;27;20031;-83
2021/12/24 11:21:00;;;;;;;5.60;2.75;;;5.90;99.90;;;;;;5100859;27;19985;-84
2021/12/24 11:23:29;;;;;;;6.03;2.85;;;6.40;99.90;;;;;;5097959;27;20043;-83
2021/12/24 11:26:02;;;;;;;5.25;2.63;;;6.60;99.90;;;;;;5085251;27;20054;-83
2021/12/24 11:28:29;;;;;;;5.93;3.20;;;5.90;99.90;;;;;;5074012;27;20455;-84
2021/12/24 11:31:01;;;;;;;6.43;3.00;;;6.00;99.90;;;;;;5074124;27;20054;-83
2021/12/24 11:33:30;;;;;;;6.25;2.75;;;6.00;99.90;;;;;;5082809;27;20056;-84
2021/12/24 11:35:57;;;;;;;6.63;2.83;;;5.90;99.90;;;;;;5092614;27;20083;-84
2021/12/24 11:38:29;;;;;;;7.90;3.03;;;6.20;99.90;;;;;;5078599;27;20134;-84
2021/12/24 11:40:57;;;;;;;6.18;2.97;;;5.90;99.90;;;;;;5092881;28;20047;-84
2021/12/24 11:43:52;;;;;;;6.22;2.88;;;5.90;99.90;;;;;;5104501;27;20043;-84
2021/12/24 11:46:20;;;;;;;8.90;3.13;;;5.90;99.90;;;;;;5090068;27;20107;-84
2021/12/24 11:48:48;;;;;;;6.20;3.17;;;5.90;99.90;;;;;;5090730;27;20112;-84
2021/12/24 11:51:18;;;;;;;6.10;3.10;;;5.90;99.90;;;;;;5074137;27;20047;-85
2021/12/24 11:53:45;;;;;;;7.35;3.15;;;5.90;99.90;;;;;;5091954;27;20130;-84
2021/12/24 11:56:14;;;;;;;5.40;2.78;;;5.90;99.90;;;;;;5081699;28;20074;-83
2021/12/24 11:58:49;;;;;;;6.05;2.90;;;6.10;99.90;;;;;;5080768;27;20042;-84
2021/12/24 12:01:17;;;;;;;6.75;2.92;;;5.90;99.90;;;;;;5089523;27;20525;-83
2021/12/24 12:03:54;;;;;;;6.18;2.85;;;5.90;99.90;;;;;;5116038;28;20130;-83
2021/12/24 12:06:23;;;;;;;6.78;2.92;;;5.80;99.90;;;;;;5088300;27;20168;-83
2021/12/24 12:08:50;;;;;;;9.30;3.25;;;5.80;99.90;;;;;;5104652;27;20049;-84
2021/12/24 12:11:24;;;;;;;7.68;3.55;;;5.80;99.90;;;;;;5106444;27;21200;-84
2021/12/24 12:13:55;;;;;;;8.63;3.58;;;5.90;99.90;;;;;;5119488;27;20039;-84
2021/12/24 12:16:27;;;;;;;7.00;3.20;;;5.90;99.90;;;;;;5096003;27;20039;-84
2021/12/24 12:19:28;;;;;;;9.63;4.07;;;5.90;99.90;;;;;;5100211;27;20511;-84
2021/12/24 12:24:57;;;;;;;6.80;3.63;;;5.90;99.90;;;;;;5096281;27;20334;-84
2021/12/24 12:27:53;;;;;;;6.95;3.35;;;5.90;99.90;;;;;;5086420;27;20071;-85
2021/12/24 12:30:21;;;;;;;7.97;3.88;;;6.00;99.90;;;;;;5093973;27;20151;-85
2021/12/24 12:32:50;;;;;;;7.28;3.60;;;5.90;99.90;;;;;;5087095;27;20144;-85
2021/12/24 12:39:35;;;;;;;8.13;3.72;;;5.30;99.90;;;;;;5103985;27;20062;-84
2021/12/24 12:42:01;;;;;;;8.15;4.00;;;6.20;99.90;;;;;;5079650;28;20480;-84
2021/12/24 12:44:27;;;;;;;7.10;3.92;;;6.30;99.90;;;;;;5083926;28;20075;-83
2021/12/24 12:47:09;;;;;;;6.88;3.80;;;6.10;99.90;;;;;;5067189;28;20032;-84
2021/12/24 12:49:36;;;;;;;10.20;4.22;;;6.10;99.90;;;;;;5089195;27;20052;-83
2021/12/24 12:52:06;;;;;;;8.20;4.40;;;6.10;99.90;;;;;;5078620;27;20048;-83
2021/12/24 12:54:35;;;;;;;8.63;4.25;;;6.40;99.90;;;;;;5083213;28;20051;-84
2021/12/24 12:57:30;;;;;;;6.95;3.40;;;6.20;99.90;;;;;;5079977;28;20032;-84
2021/12/24 13:00:17;;;;;;;6.72;3.70;;;6.30;99.90;;;;;;5101664;27;20032;-84
2021/12/24 13:03:01;;;;;;;8.43;3.88;;;6.30;99.90;;;;;;5063626;28;20124;-84
2021/12/24 13:05:30;;;;;;;6.68;3.97;;;6.30;99.90;;;;;;5084788;27;20112;-84
2021/12/24 13:08:00;;;;;;;8.45;4.00;;;6.30;99.90;;;;;;5068238;28;20036;-84
2021/12/24 13:10:28;;;;;;;8.48;4.00;;;6.30;99.90;;;;;;5062387;27;20105;-84
2021/12/24 13:13:06;;;;;;;8.73;4.35;;;6.30;99.90;;;;;;5107739;27;20663;-84
2021/12/24 13:15:45;;;;;;;7.60;3.88;;;6.30;99.90;;;;;;5065329;27;20047;-83
2021/12/24 13:18:25;;;;;;;8.80;4.32;;;6.30;99.90;;;;;;5066282;28;20090;-85
2021/12/24 13:23:34;;;;;;;9.55;4.43;;;6.50;99.90;;;;;;5075692;28;20048;-84
2021/12/24 13:26:17;;;;;;;9.13;3.63;;;6.40;99.90;;;;;;5107353;27;20035;-84
2021/12/24 13:29:12;;;;;;;7.88;3.83;;;6.40;99.90;;;;;;5105170;27;20032;-84
2021/12/24 13:31:38;;;;;;;8.88;4.30;;;6.40;99.90;;;;;;5061968;28;20862;-83
2021/12/24 13:34:12;;;;;;;9.73;3.65;;;6.40;99.90;;;;;;5069360;28;20133;-83
2021/12/24 13:36:38;;;;;;;7.60;3.88;;;6.40;99.90;;;;;;5065432;27;20090;-84
2021/12/24 13:39:12;;;;;;;12.32;4.50;;;6.40;99.90;;;;;;5076231;27;20056;-84
2021/12/24 13:41:39;;;;;;;9.77;3.70;;;6.40;99.90;;;;;;5063551;28;20083;-83
2021/12/24 13:44:06;;;;;;;7.88;3.75;;;6.30;99.90;;;;;;5081066;27;20047;-83
2021/12/24 13:46:36;;;;;;;7.43;3.80;;;6.30;99.90;;;;;;5082320;27;20048;-83
2021/12/24 13:54:36;;;;;;;6.82;3.05;;;6.50;99.90;;;;;;5084358;28;20047;-84
2021/12/24 13:57:05;;;;;;;7.88;3.08;;;6.30;99.90;;;;;;5093957;27;20139;-85
2021/12/24 13:59:32;;;;;;;11.60;3.47;;;6.30;99.90;;;;;;5079144;27;20076;-84
2021/12/24 14:02:00;;;;;;;8.20;3.05;;;6.30;99.90;;;;;;5099156;27;20052;-84
2021/12/24 14:04:26;;;;;;;7.30;3.17;;;6.20;99.90;;;;;;5062904;28;20048;-84
2021/12/24 14:06:55;;;;;;;9.18;3.00;;;6.20;99.90;;;;;;5081194;27;20425;-84
2021/12/24 14:09:33;;;;;;;9.75;3.22;;;6.20;99.90;;;;;;5073872;28;20224;-84
2021/12/24 14:12:01;;;;;;;6.60;3.03;;;6.20;99.90;;;;;;5078440;27;20232;-83
2021/12/24 14:14:53;;;;;;;6.60;3.08;;;6.40;99.90;;;;;;5086141;27;20582;-85
2021/12/24 14:22:23;;;;;;;8.00;2.65;;;6.20;99.90;;;;;;5098610;27;20047;-84
2021/12/24 14:24:52;;;;;;;8.45;3.70;;;6.20;99.90;;;;;;5096046;27;20499;-84
2021/12/24 14:27:20;;;;;;;7.55;3.60;;;6.20;99.90;;;;;;5081922;27;21388;-84
2021/12/24 14:29:54;;;;;;;9.95;2.95;;;6.20;99.90;;;;;;5122575;27;20493;-84
2021/12/24 14:32:43;;;;;;;9.57;3.63;;;6.20;99.90;;;;;;5097549;27;20050;-84
2021/12/24 14:35:24;;;;;;;7.20;2.13;;;6.10;99.90;;;;;;5083138;27;20260;-84
2021/12/24 14:38:00;;;;;;;4.18;0.88;;;6.10;99.90;;;;;;5078859;27;20085;-84
2021/12/24 14:40:28;;;;;;;1.83;0.68;;;6.00;99.90;;;;;;5064700;27;20111;-84
2021/12/24 14:42:55;;;;;;;4.10;0.90;;;5.90;99.90;;;;;;5087935;28;20131;-83
2021/12/24 14:45:32;;;;;;;4.93;0.50;;;6.20;99.90;;;;;;5076756;28;20035;-84
2021/12/24 14:48:09;;;;;;;4.75;0.77;;;5.80;99.90;;;;;;5070968;28;20932;-84
2021/12/24 14:50:50;;;;;;;3.13;0.93;;;5.70;99.90;;;;;;5080390;28;20103;-84
2021/12/24 14:53:21;;;;;;;4.53;0.90;;;6.20;99.90;;;;;;5079065;28;20503;-84
2021/12/24 14:55:50;;;;;;;4.00;1.17;;;5.60;99.90;;;;;;5081898;28;20044;-85